createdAt,value
2018-12-21T00:01:50.220Z,-2.31
2018-12-21T00:04:18.878Z,-2.34
2018-12-21T00:06:47.521Z,-2.37
2018-12-21T00:09:16.299Z,-2.41
2018-12-21T00:11:44.971Z,-2.34
2018-12-21T00:14:13.543Z,-2.36
2018-12-21T00:16:42.236Z,-2.37
2018-12-21T00:19:10.945Z,-2.36
2018-12-21T00:21:39.653Z,-2.27
2018-12-21T00:24:08.257Z,-2.27
2018-12-21T00:26:36.921Z,-2.26
2018-12-21T00:29:05.570Z,-2.34
2018-12-21T00:31:39.347Z,-2.40
2018-12-21T00:34:13.112Z,-2.36
2018-12-21T00:36:46.882Z,-2.40
2018-12-21T00:39:20.824Z,-2.38
2018-12-21T00:41:48.554Z,-2.27
2018-12-21T00:44:29.227Z,-2.23
2018-12-21T00:47:01.821Z,-2.35
2018-12-21T00:49:30.497Z,-2.30
2018-12-21T00:51:59.073Z,-2.31
2018-12-21T00:54:27.700Z,-2.27
2018-12-21T00:56:58.316Z,-2.32
2018-12-21T00:59:26.984Z,-2.64
2018-12-21T01:01:55.710Z,-2.79
2018-12-21T01:04:24.333Z,-2.72
2018-12-21T01:06:53.008Z,-2.68
2018-12-21T01:09:21.878Z,-2.57
2018-12-21T01:11:50.481Z,-2.55
2018-12-21T01:14:19.262Z,-2.41
2018-12-21T01:16:47.938Z,-2.42
2018-12-21T01:19:16.581Z,-2.54
2018-12-21T01:21:45.223Z,-2.44
2018-12-21T01:24:14.617Z,-2.35
2018-12-21T01:26:43.217Z,-2.31
2018-12-21T01:29:11.867Z,-2.27
2018-12-21T01:31:40.524Z,-2.31
2018-12-21T01:34:09.118Z,-2.35
2018-12-21T01:36:37.687Z,-2.57
2018-12-21T01:39:07.150Z,-2.45
2018-12-21T01:41:35.822Z,-2.39
2018-12-21T01:44:04.747Z,-2.54
2018-12-21T01:46:33.358Z,-2.53
2018-12-21T01:49:01.948Z,-2.45
2018-12-21T01:51:30.558Z,-2.55
2018-12-21T01:53:59.178Z,-2.37
2018-12-21T01:56:27.778Z,-2.39
2018-12-21T01:58:56.432Z,-2.36
2018-12-21T02:01:25.009Z,-2.34
2018-12-21T02:03:53.679Z,-2.35
2018-12-21T02:06:22.365Z,-2.51
2018-12-21T02:08:50.954Z,-2.44
2018-12-21T02:11:19.538Z,-2.39
2018-12-21T02:13:48.152Z,-2.34
2018-12-21T02:16:16.763Z,-2.47
2018-12-21T02:18:45.375Z,-2.42
2018-12-21T02:21:13.931Z,-2.54
2018-12-21T02:23:42.535Z,-2.50
2018-12-21T02:26:11.129Z,-2.54
2018-12-21T02:28:39.761Z,-2.42
2018-12-21T02:31:08.373Z,-2.31
2018-12-21T02:33:36.980Z,-2.36
2018-12-21T02:36:05.618Z,-2.41
2018-12-21T02:38:34.200Z,-2.43
2018-12-21T02:41:02.788Z,-2.39
2018-12-21T02:43:31.384Z,-2.35
2018-12-21T02:50:36.351Z,-2.58
2018-12-21T02:53:04.982Z,-2.47
2018-12-21T02:55:33.548Z,-2.52
2018-12-21T02:58:02.178Z,-2.50
2018-12-21T03:00:30.804Z,-2.48
2018-12-21T03:02:59.451Z,-2.44
2018-12-21T03:05:28.069Z,-2.61
2018-12-21T03:07:56.634Z,-2.43
2018-12-21T03:10:25.291Z,-2.40
2018-12-21T03:12:53.928Z,-2.45
2018-12-21T03:15:22.549Z,-2.46
2018-12-21T03:17:51.174Z,-2.46
2018-12-21T03:20:19.815Z,-2.48
2018-12-21T03:22:48.482Z,-2.50
2018-12-21T03:25:17.221Z,-2.44
2018-12-21T03:27:45.855Z,-2.56
2018-12-21T03:30:14.680Z,-2.57
2018-12-21T03:32:43.280Z,-2.47
2018-12-21T03:35:11.892Z,-2.48
2018-12-21T03:37:40.506Z,-2.41
2018-12-21T03:40:09.208Z,-2.40
2018-12-21T03:42:37.773Z,-2.44
2018-12-21T03:45:06.714Z,-2.48
2018-12-21T03:47:35.471Z,-2.43
2018-12-21T03:50:04.237Z,-2.35
2018-12-21T03:52:32.891Z,-2.39
2018-12-21T03:55:01.490Z,-2.60
2018-12-21T03:57:30.223Z,-2.45
2018-12-21T03:59:58.857Z,-2.48
2018-12-21T04:02:27.422Z,-2.55
2018-12-21T04:04:56.040Z,-2.58
2018-12-21T04:07:24.675Z,-2.63
2018-12-21T04:09:53.353Z,-2.58
2018-12-21T04:12:22.082Z,-2.53
2018-12-21T04:14:50.708Z,-2.53
2018-12-21T04:17:19.335Z,-2.68
2018-12-21T04:19:47.875Z,-2.73
2018-12-21T04:22:16.496Z,-2.60
2018-12-21T04:24:45.146Z,-2.61
2018-12-21T04:27:13.756Z,-2.58
2018-12-21T04:29:42.394Z,-2.63
2018-12-21T04:32:10.960Z,-2.48
2018-12-21T04:34:39.684Z,-2.48
2018-12-21T04:37:08.326Z,-2.64
2018-12-21T04:39:36.930Z,-2.55
2018-12-21T04:42:05.662Z,-2.52
2018-12-21T04:44:34.216Z,-2.60
2018-12-21T04:47:02.832Z,-2.46
2018-12-21T04:49:31.529Z,-2.51
2018-12-21T04:52:00.176Z,-2.47
2018-12-21T04:54:29.086Z,-2.63
2018-12-21T04:56:57.705Z,-2.60
2018-12-21T04:59:26.277Z,-2.51
2018-12-21T05:01:55.062Z,-2.58
2018-12-21T05:04:23.729Z,-2.62
2018-12-21T05:06:52.425Z,-2.63
2018-12-21T05:09:21.060Z,-2.56
2018-12-21T05:11:49.701Z,-2.72
2018-12-21T05:14:18.259Z,-2.80
2018-12-21T05:16:46.868Z,-2.82
2018-12-21T05:19:46.123Z,-2.69
2018-12-21T05:22:14.709Z,-2.74
2018-12-21T05:24:43.293Z,-2.71
2018-12-21T05:27:11.920Z,-2.54
2018-12-21T05:29:40.529Z,-2.41
2018-12-21T05:32:09.134Z,-2.43
2018-12-21T05:34:37.718Z,-2.48
2018-12-21T05:37:06.366Z,-2.46
2018-12-21T05:39:35.071Z,-2.54
2018-12-21T05:42:03.636Z,-2.56
2018-12-21T05:44:32.286Z,-2.47
2018-12-21T05:47:00.880Z,-2.57
2018-12-21T05:49:29.490Z,-2.47
2018-12-21T05:51:58.102Z,-2.59
2018-12-21T05:54:26.767Z,-2.46
2018-12-21T05:56:55.316Z,-2.50
2018-12-21T05:59:24.501Z,-2.56
2018-12-21T06:01:53.123Z,-2.53
2018-12-21T06:04:21.762Z,-2.47
2018-12-21T06:06:50.424Z,-2.51
2018-12-21T06:09:19.013Z,-2.46
2018-12-21T06:11:47.565Z,-2.36
2018-12-21T06:14:16.208Z,-2.40
2018-12-21T06:16:44.806Z,-2.34
2018-12-21T06:19:13.472Z,-2.35
2018-12-21T06:21:42.677Z,-2.36
2018-12-21T06:24:11.673Z,-2.29
2018-12-21T06:26:40.811Z,-2.22
2018-12-21T06:29:09.654Z,-2.32
2018-12-21T06:31:38.244Z,-2.27
2018-12-21T06:34:06.946Z,-2.21
2018-12-21T06:36:35.612Z,-2.25
2018-12-21T06:39:06.404Z,-2.22
2018-12-21T06:41:35.061Z,-2.32
2018-12-21T06:44:03.770Z,-2.37
2018-12-21T06:46:32.460Z,-2.24
2018-12-21T06:49:01.033Z,-2.25
2018-12-21T06:51:29.640Z,-2.22
2018-12-21T06:53:58.320Z,-2.16
2018-12-21T06:56:26.941Z,-2.15
2018-12-21T06:58:55.622Z,-2.09
2018-12-21T07:01:24.342Z,-2.09
2018-12-21T07:03:52.927Z,-1.94
2018-12-21T07:06:21.554Z,-1.90
2018-12-21T07:08:50.234Z,-1.99
2018-12-21T07:11:18.904Z,-1.95
2018-12-21T07:13:47.676Z,-1.93
2018-12-21T07:16:16.280Z,-1.99
2018-12-21T07:18:44.845Z,-1.99
2018-12-21T07:21:13.477Z,-1.90
2018-12-21T07:23:42.070Z,-1.92
2018-12-21T07:26:10.836Z,-2.07
2018-12-21T07:28:39.466Z,-1.91
2018-12-21T07:31:08.160Z,-1.91
2018-12-21T07:33:36.792Z,-2.01
2018-12-21T07:36:08.637Z,-2.06
2018-12-21T07:38:36.085Z,-1.99
2018-12-21T07:41:04.756Z,-1.92
2018-12-21T07:43:36.520Z,-2.01
2018-12-21T07:46:05.221Z,-2.02
2018-12-21T07:48:34.285Z,-1.95
2018-12-21T07:51:02.879Z,-1.82
2018-12-21T07:53:35.748Z,-1.74
2018-12-21T07:57:31.694Z,-1.67
2018-12-21T08:00:00.419Z,-1.84
2018-12-21T08:02:29.162Z,-1.73
2018-12-21T08:04:57.822Z,-1.71
2018-12-21T08:07:26.550Z,-1.61
2018-12-21T08:09:55.187Z,-1.70
2018-12-21T08:12:23.896Z,-1.65
2018-12-21T08:14:57.706Z,-1.72
2018-12-21T08:17:26.389Z,-1.59
2018-12-21T08:19:55.026Z,-1.61
2018-12-21T08:22:23.657Z,-1.74
2018-12-21T08:27:38.256Z,-1.82
2018-12-21T08:30:10.799Z,-1.82
2018-12-21T08:32:39.449Z,-1.73
2018-12-21T08:35:08.145Z,-1.63
2018-12-21T08:37:36.896Z,-1.62
2018-12-21T08:40:07.543Z,-1.50
2018-12-21T08:42:36.147Z,-1.56
2018-12-21T08:45:05.974Z,-1.40
2018-12-21T08:47:34.890Z,-1.41
2018-12-21T08:50:04.127Z,-1.40
2018-12-21T08:52:32.705Z,-1.32
2018-12-21T08:55:01.446Z,-1.34
2018-12-21T08:57:30.102Z,-1.28
2018-12-21T08:59:58.751Z,-1.18
2018-12-21T09:02:27.389Z,-1.04
2018-12-21T09:04:55.981Z,-1.11
2018-12-21T09:07:24.606Z,-1.16
2018-12-21T09:09:53.322Z,-1.19
2018-12-21T09:12:22.005Z,-1.05
2018-12-21T09:14:50.586Z,-0.98
2018-12-21T09:17:19.269Z,-0.94
2018-12-21T09:19:47.871Z,-1.04
2018-12-21T09:22:16.493Z,-0.86
2018-12-21T09:24:45.138Z,-0.99
2018-12-21T09:27:13.752Z,-1.08
2018-12-21T09:29:42.496Z,-0.99
2018-12-21T09:32:11.755Z,-0.91
2018-12-21T09:34:40.443Z,-0.86
2018-12-21T09:37:09.050Z,-0.92
2018-12-21T09:41:06.746Z,-0.71
2018-12-21T09:43:35.447Z,-0.89
2018-12-21T09:46:04.194Z,-0.82
2018-12-21T09:48:32.762Z,-0.62
2018-12-21T09:51:01.553Z,-0.53
2018-12-21T09:53:30.224Z,-0.32
2018-12-21T09:55:58.861Z,-0.25
2018-12-21T09:58:27.612Z,-0.22
2018-12-21T10:00:56.264Z,-0.10
2018-12-21T10:03:25.044Z,-0.17
2018-12-21T10:05:53.735Z,-0.37
2018-12-21T10:08:22.394Z,-0.30
2018-12-21T10:10:51.040Z,-0.38
2018-12-21T10:13:19.812Z,-0.21
2018-12-21T10:15:48.478Z,-0.14
2018-12-21T10:21:20.931Z,-0.39
2018-12-21T10:23:49.468Z,-0.50
2018-12-21T10:26:18.030Z,-0.38
2018-12-21T10:28:47.580Z,-0.31
2018-12-21T10:31:16.144Z,-0.24
2018-12-21T10:33:44.698Z,0.02
2018-12-21T10:36:13.408Z,0.10
2018-12-21T10:38:42.041Z,0.41
2018-12-21T10:41:11.061Z,0.27
2018-12-21T10:43:39.612Z,0.44
2018-12-21T10:46:08.244Z,0.39
2018-12-21T10:48:37.475Z,0.36
2018-12-21T10:51:06.375Z,0.24
2018-12-21T10:53:35.017Z,0.21
2018-12-21T10:56:03.687Z,0.29
2018-12-21T10:58:32.263Z,0.12
2018-12-21T11:01:00.888Z,0.20
2018-12-21T11:03:29.434Z,0.27
2018-12-21T11:05:58.144Z,0.20
2018-12-21T11:08:26.883Z,0.20
2018-12-21T11:10:55.559Z,-0.13
2018-12-21T11:13:24.134Z,0.08
2018-12-21T11:15:52.745Z,0.06
2018-12-21T11:18:21.275Z,0.14
2018-12-21T11:20:49.853Z,0.17
2018-12-21T11:23:18.460Z,0.23
2018-12-21T11:25:47.032Z,0.38
2018-12-21T11:28:15.632Z,0.28
2018-12-21T11:30:44.251Z,0.43
2018-12-21T11:33:28.441Z,0.55
2018-12-21T11:35:57.029Z,0.52
2018-12-21T11:38:25.621Z,0.66
2018-12-21T11:40:54.392Z,0.85
2018-12-21T11:43:22.944Z,0.95
2018-12-21T11:45:51.529Z,1.08
2018-12-21T11:48:20.140Z,1.32
2018-12-21T11:50:50.099Z,1.51
2018-12-21T11:53:18.719Z,1.63
2018-12-21T11:55:47.336Z,1.77
2018-12-21T11:58:15.961Z,2.02
2018-12-21T12:00:44.556Z,2.19
2018-12-21T12:03:13.171Z,2.53
2018-12-21T12:05:41.803Z,2.75
2018-12-21T12:08:10.387Z,2.89
2018-12-21T12:10:39.005Z,2.70
2018-12-21T12:13:07.628Z,2.67
2018-12-21T12:15:36.195Z,2.88
2018-12-21T12:18:04.810Z,3.04
2018-12-21T12:20:33.556Z,3.15
2018-12-21T12:23:02.207Z,3.14
2018-12-21T12:25:32.246Z,3.06
2018-12-21T12:28:03.723Z,3.26
2018-12-21T12:30:32.630Z,2.96
2018-12-21T12:33:01.344Z,2.71
2018-12-21T12:35:29.963Z,2.60
2018-12-21T12:38:18.798Z,2.54
2018-12-21T12:40:51.613Z,2.59
2018-12-21T12:43:24.046Z,2.71
2018-12-21T12:45:52.807Z,2.56
2018-12-21T12:48:21.679Z,2.49
2018-12-21T12:50:50.314Z,2.22
2018-12-21T12:53:19.109Z,2.34
2018-12-21T12:55:47.742Z,2.17
2018-12-21T12:58:16.369Z,2.05
2018-12-21T13:00:45.024Z,2.08
2018-12-21T13:03:13.643Z,1.99
2018-12-21T13:05:42.240Z,1.93
2018-12-21T13:08:10.834Z,1.97
2018-12-21T13:10:39.405Z,1.86
2018-12-21T13:13:08.329Z,1.66
2018-12-21T13:15:36.908Z,1.63
2018-12-21T13:18:05.499Z,1.55
2018-12-21T13:20:38.104Z,1.42
2018-12-21T13:23:11.117Z,1.32
2018-12-21T13:25:40.558Z,1.31
2018-12-21T13:28:10.837Z,1.15
2018-12-21T13:30:40.883Z,1.01
2018-12-21T13:33:09.657Z,0.92
2018-12-21T13:35:39.398Z,0.79
2018-12-21T13:38:08.635Z,0.73
2018-12-21T13:40:39.383Z,0.67
2018-12-21T13:43:09.127Z,0.65
2018-12-21T13:45:38.752Z,0.53
2018-12-21T13:48:07.361Z,0.63
2018-12-21T13:50:36.323Z,0.55
2018-12-21T13:53:05.027Z,0.57
2018-12-21T13:55:33.590Z,0.45
2018-12-21T13:58:03.116Z,0.46
2018-12-21T14:00:32.487Z,0.67
2018-12-21T14:03:01.254Z,0.68
2018-12-21T14:05:31.558Z,0.74
2018-12-21T14:08:00.375Z,0.60
2018-12-21T14:10:30.570Z,0.68
2018-12-21T14:12:59.438Z,0.59
2018-12-21T14:15:29.680Z,0.46
2018-12-21T14:17:58.483Z,0.53
2018-12-21T14:20:29.612Z,0.38
2018-12-21T14:23:00.208Z,0.44
2018-12-21T14:25:29.332Z,0.44
2018-12-21T14:27:59.383Z,0.30
2018-12-21T14:30:28.019Z,0.24
2018-12-21T14:32:56.631Z,0.09
2018-12-21T14:35:26.199Z,-0.02
2018-12-21T14:37:55.814Z,-0.10
2018-12-21T14:40:25.419Z,-0.24
2018-12-21T14:42:55.800Z,-0.29
2018-12-21T14:45:24.932Z,-0.31
2018-12-21T14:47:53.695Z,-0.58
2018-12-21T14:50:23.028Z,-0.43
2018-12-21T14:52:55.336Z,-0.38
2018-12-21T14:55:24.522Z,-0.60
2018-12-21T14:57:56.943Z,-0.75
2018-12-21T15:00:26.287Z,-0.75
2018-12-21T15:02:57.497Z,-0.74
2018-12-21T15:05:26.124Z,-0.83
2018-12-21T15:07:57.476Z,-0.82
2018-12-21T15:10:26.816Z,-0.92
2018-12-21T15:12:56.018Z,-0.80
2018-12-21T15:15:24.652Z,-0.83
2018-12-21T15:17:53.361Z,-0.90
2018-12-21T15:20:22.455Z,-0.91
2018-12-21T15:22:51.224Z,-0.94
2018-12-21T15:25:19.955Z,-1.02
2018-12-21T15:27:48.928Z,-1.05
2018-12-21T15:30:18.698Z,-1.11
2018-12-21T15:32:47.730Z,-1.00
2018-12-21T15:35:17.296Z,-0.91
2018-12-21T15:37:47.088Z,-1.11
2018-12-21T15:40:15.853Z,-1.00
2018-12-21T15:42:45.408Z,-1.08
2018-12-21T15:45:14.832Z,-1.07
2018-12-21T15:47:43.589Z,-1.04
2018-12-21T15:50:12.978Z,-1.04
2018-12-21T15:52:43.755Z,-1.16
2018-12-21T15:55:12.371Z,-1.24
2018-12-21T15:57:41.200Z,-1.32
2018-12-21T16:00:13.274Z,-1.46
2018-12-21T16:02:44.992Z,-1.41
2018-12-21T16:05:14.230Z,-1.36
2018-12-21T16:07:43.267Z,-1.40
2018-12-21T16:10:12.502Z,-1.43
2018-12-21T16:12:41.254Z,-1.48
2018-12-21T16:15:10.207Z,-1.57
2018-12-21T16:17:40.103Z,-1.57
2018-12-21T16:20:12.307Z,-1.70
2018-12-21T16:22:42.445Z,-1.56
2018-12-21T16:25:12.258Z,-1.53
2018-12-21T16:27:40.866Z,-1.68
2018-12-21T16:30:13.624Z,-1.60
2018-12-21T16:32:42.371Z,-1.63
2018-12-21T16:35:11.470Z,-1.70
2018-12-21T16:37:41.076Z,-1.57
2018-12-21T16:40:11.319Z,-1.61
2018-12-21T16:42:40.584Z,-1.58
2018-12-21T16:45:11.601Z,-1.67
2018-12-21T16:47:41.577Z,-1.60
2018-12-21T16:50:13.216Z,-1.61
2018-12-21T16:52:42.846Z,-1.59
2018-12-21T16:55:12.213Z,-1.60
2018-12-21T16:57:40.914Z,-1.56
2018-12-21T17:00:16.514Z,-1.59
2018-12-21T17:02:45.257Z,-1.54
2018-12-21T17:05:13.947Z,-1.47
2018-12-21T17:07:43.240Z,-1.45
2018-12-21T17:10:19.049Z,-1.53
2018-12-21T17:12:47.753Z,-1.51
2018-12-21T17:15:16.714Z,-1.54
2018-12-21T17:17:46.364Z,-1.45
2018-12-21T17:20:15.226Z,-1.63
2018-12-21T17:22:44.775Z,-1.50
2018-12-21T17:25:14.791Z,-1.43
2018-12-21T17:27:43.648Z,-1.53
2018-12-21T17:30:15.620Z,-1.54
2018-12-21T17:32:44.821Z,-1.61
2018-12-21T17:35:15.534Z,-1.57
2018-12-21T17:37:44.360Z,-1.59
2018-12-21T17:40:14.862Z,-1.62
2018-12-21T17:42:44.152Z,-1.63
2018-12-21T17:45:14.558Z,-1.71
2018-12-21T17:47:45.578Z,-1.71
2018-12-21T17:50:14.741Z,-1.68
2018-12-21T17:52:44.367Z,-1.69
2018-12-21T17:55:13.791Z,-1.76
2018-12-21T17:57:43.100Z,-1.88
2018-12-21T18:00:22.806Z,-1.74
2018-12-21T18:02:55.010Z,-1.83
2018-12-21T18:05:25.659Z,-1.85
2018-12-21T18:07:56.183Z,-1.82
2018-12-21T18:10:24.942Z,-1.92
2018-12-21T18:12:54.073Z,-2.01
2018-12-21T18:15:23.679Z,-2.18
2018-12-21T18:17:52.992Z,-2.05
2018-12-21T18:20:23.825Z,-2.17
2018-12-21T18:22:53.269Z,-2.30
2018-12-21T18:25:26.130Z,-2.27
2018-12-21T18:27:57.381Z,-2.31
2018-12-21T18:30:34.446Z,-2.37
2018-12-21T18:33:10.644Z,-2.23
2018-12-21T18:35:37.605Z,-2.21
2018-12-21T18:38:11.513Z,-2.23
2018-12-21T18:40:41.298Z,-2.25
2018-12-21T18:44:13.261Z,-2.20
2018-12-21T18:46:42.735Z,-2.34
2018-12-21T18:49:14.843Z,-2.31
2018-12-21T18:51:44.133Z,-2.44
2018-12-21T18:54:13.119Z,-2.48
2018-12-21T18:56:55.742Z,-2.41
2018-12-21T18:59:24.909Z,-2.40
2018-12-21T19:01:53.565Z,-2.54
2018-12-21T19:04:22.203Z,-2.49
2018-12-21T19:06:50.736Z,-2.49
2018-12-21T19:10:36.745Z,-2.40
2018-12-21T19:13:07.031Z,-2.43
2018-12-21T19:15:37.388Z,-2.55
2018-12-21T19:18:05.930Z,-2.62
2018-12-21T19:20:35.778Z,-2.51
2018-12-21T19:23:04.399Z,-2.49
2018-12-21T19:25:33.522Z,-2.51
2018-12-21T19:28:04.479Z,-2.37
2018-12-21T19:30:33.244Z,-2.54
2018-12-21T19:33:03.585Z,-2.35
2018-12-21T19:35:32.626Z,-2.42
2018-12-21T19:38:01.314Z,-2.43
2018-12-21T19:40:30.605Z,-2.37
2018-12-21T19:42:59.612Z,-2.39
2018-12-21T19:45:28.335Z,-2.33
2018-12-21T19:47:57.145Z,-2.28
2018-12-21T19:50:27.375Z,-2.40
2018-12-21T19:52:56.194Z,-2.25
2018-12-21T19:57:45.316Z,-2.31
2018-12-21T20:00:14.152Z,-2.30
2018-12-21T20:02:43.744Z,-2.31
2018-12-21T20:05:12.827Z,-2.31
2018-12-21T20:07:41.826Z,-2.31
2018-12-21T20:10:12.226Z,-2.44
2018-12-21T20:12:40.915Z,-2.49
2018-12-21T20:15:10.435Z,-2.43
2018-12-21T20:17:39.546Z,-2.50
2018-12-21T20:20:09.594Z,-2.56
2018-12-21T20:22:39.442Z,-2.54
2018-12-21T20:25:10.062Z,-2.61
2018-12-21T20:27:40.553Z,-2.50
2018-12-21T20:30:16.696Z,-2.66
2018-12-21T20:32:46.003Z,-2.62
2018-12-21T20:35:14.862Z,-2.63
2018-12-21T20:37:45.751Z,-2.51
2018-12-21T20:40:14.501Z,-2.59
2018-12-21T20:45:20.083Z,-2.40
2018-12-21T20:47:49.334Z,-2.44
2018-12-21T20:50:18.510Z,-2.41
2018-12-21T20:52:48.967Z,-2.49
2018-12-21T20:55:17.806Z,-2.46
2018-12-21T20:57:49.259Z,-2.57
2018-12-21T21:00:19.095Z,-2.66
2018-12-21T21:02:47.954Z,-2.52
2018-12-21T21:05:16.648Z,-2.59
2018-12-21T21:07:48.337Z,-2.56
2018-12-21T21:10:17.577Z,-2.61
2018-12-21T21:12:46.175Z,-2.57
2018-12-21T21:15:14.902Z,-2.59
2018-12-21T21:17:43.547Z,-2.50
2018-12-21T21:20:14.889Z,-2.58
2018-12-21T21:22:43.781Z,-2.57
2018-12-21T21:25:12.497Z,-2.49
2018-12-21T21:27:41.192Z,-2.45
2018-12-21T21:30:14.498Z,-2.50
2018-12-21T21:32:43.159Z,-2.40
2018-12-21T21:35:11.993Z,-2.39
2018-12-21T21:37:40.723Z,-2.40
2018-12-21T21:40:16.349Z,-2.41
2018-12-21T21:42:45.823Z,-2.43
2018-12-21T21:45:14.459Z,-2.42
2018-12-21T21:47:44.042Z,-2.31
2018-12-21T21:50:13.886Z,-2.33
2018-12-21T21:52:42.992Z,-2.38
2018-12-21T21:55:11.633Z,-2.33
2018-12-21T21:57:40.215Z,-2.44
2018-12-21T22:00:13.870Z,-2.43
2018-12-21T22:02:42.715Z,-2.38
2018-12-21T22:05:30.540Z,-2.37
2018-12-21T22:07:59.145Z,-2.44
2018-12-21T22:10:27.937Z,-2.55
2018-12-21T22:12:56.547Z,-2.61
2018-12-21T22:15:25.128Z,-2.55
2018-12-21T22:17:53.697Z,-2.49
2018-12-21T22:20:22.292Z,-2.53
2018-12-21T22:22:50.972Z,-2.61
2018-12-21T22:25:19.511Z,-2.67
2018-12-21T22:27:48.369Z,-2.59
2018-12-21T22:30:17.137Z,-2.58
2018-12-21T22:32:45.729Z,-2.66
2018-12-21T22:35:14.323Z,-2.67
2018-12-21T22:37:42.933Z,-2.81
2018-12-21T22:40:11.488Z,-2.70
2018-12-21T22:42:40.135Z,-2.71
2018-12-21T22:45:08.848Z,-2.77
2018-12-21T22:47:37.429Z,-2.67
2018-12-21T22:50:07.843Z,-2.58
2018-12-21T22:52:37.113Z,-2.67
2018-12-21T22:55:06.744Z,-2.59
2018-12-21T22:57:35.340Z,-2.58
2018-12-21T23:00:12.783Z,-2.60
2018-12-21T23:02:41.450Z,-2.70
2018-12-21T23:05:10.162Z,-2.67
2018-12-21T23:07:38.765Z,-2.70
2018-12-21T23:10:08.273Z,-2.71
2018-12-21T23:12:36.842Z,-2.62
2018-12-21T23:15:05.633Z,-2.68
2018-12-21T23:17:34.271Z,-2.75
2018-12-21T23:20:02.975Z,-2.75
2018-12-21T23:22:31.667Z,-2.61
2018-12-21T23:25:00.262Z,-2.71
2018-12-21T23:27:28.864Z,-2.63
2018-12-21T23:29:57.457Z,-2.56
2018-12-21T23:32:26.155Z,-2.60
2018-12-21T23:34:54.699Z,-2.67
2018-12-21T23:37:23.320Z,-2.79
2018-12-21T23:39:51.898Z,-2.84
2018-12-21T23:42:20.636Z,-2.68
2018-12-21T23:44:49.263Z,-2.74
2018-12-21T23:47:17.875Z,-2.70
2018-12-21T23:49:46.485Z,-2.83
2018-12-21T23:52:15.054Z,-2.87
2018-12-21T23:54:43.680Z,-2.91
2018-12-21T23:57:12.323Z,-3.09
2018-12-21T23:59:41.231Z,-3.10
